sensor_id;sensor_type;location;lat;lon;timestamp;pressure;altitude;pressure_sealevel;temperature;humidity
57192;BME280;43052;52.588;13.396;2023-02-12T00:01:33;102895.63;;;7.11;80.94
57192;BME280;43052;52.588;13.396;2023-02-12T00:03:59;102898.16;;;7.09;80.85
57192;BME280;43052;52.588;13.396;2023-02-12T00:06:25;102901.50;;;7.06;80.91
57192;BME280;43052;52.588;13.396;2023-02-12T00:08:52;102905.78;;;7.04;80.94
57192;BME280;43052;52.588;13.396;2023-02-12T00:11:22;102916.19;;;7.04;80.83
57192;BME280;43052;52.588;13.396;2023-02-12T00:13:49;102919.59;;;7.03;80.86
57192;BME280;43052;52.588;13.396;2023-02-12T00:16:17;102927.81;;;7.13;80.78
57192;BME280;43052;52.588;13.396;2023-02-12T00:18:43;102934.03;;;7.16;80.40
57192;BME280;43052;52.588;13.396;2023-02-12T00:21:09;102930.31;;;7.11;80.37
57192;BME280;43052;52.588;13.396;2023-02-12T00:23:35;102934.72;;;7.12;80.72
57192;BME280;43052;52.588;13.396;2023-02-12T00:26:05;102931.22;;;7.12;80.97
57192;BME280;43052;52.588;13.396;2023-02-12T00:28:31;102936.34;;;7.10;80.57
57192;BME280;43052;52.588;13.396;2023-02-12T00:30:56;102944.88;;;7.06;80.67
57192;BME280;43052;52.588;13.396;2023-02-12T00:33:21;102938.63;;;7.02;80.57
57192;BME280;43052;52.588;13.396;2023-02-12T00:35:57;102936.78;;;7.00;80.62
57192;BME280;43052;52.588;13.396;2023-02-12T00:38:22;102932.31;;;6.97;80.49
57192;BME280;43052;52.588;13.396;2023-02-12T00:40:47;102928.03;;;6.98;80.73
57192;BME280;43052;52.588;13.396;2023-02-12T00:43:13;102924.25;;;6.91;80.71
57192;BME280;43052;52.588;13.396;2023-02-12T00:45:38;102934.00;;;6.95;80.81
57192;BME280;43052;52.588;13.396;2023-02-12T00:48:04;102939.09;;;6.94;80.46
57192;BME280;43052;52.588;13.396;2023-02-12T00:50:30;102946.19;;;6.96;80.80
57192;BME280;43052;52.588;13.396;2023-02-12T00:52:55;102939.09;;;6.94;80.71
57192;BME280;43052;52.588;13.396;2023-02-12T00:55:20;102948.69;;;6.95;80.64
57192;BME280;43052;52.588;13.396;2023-02-12T00:57:45;102940.56;;;6.87;80.64
57192;BME280;43052;52.588;13.396;2023-02-12T01:00:12;102944.03;;;6.87;80.35
57192;BME280;43052;52.588;13.396;2023-02-12T01:02:37;102945.69;;;6.85;80.54
57192;BME280;43052;52.588;13.396;2023-02-12T01:05:03;102946.44;;;6.83;80.47
57192;BME280;43052;52.588;13.396;2023-02-12T01:07:28;102943.78;;;6.81;80.61
57192;BME280;43052;52.588;13.396;2023-02-12T01:09:53;102942.00;;;6.80;80.52
57192;BME280;43052;52.588;13.396;2023-02-12T01:12:19;102958.97;;;6.92;80.54
57192;BME280;43052;52.588;13.396;2023-02-12T01:14:45;102957.31;;;6.94;80.42
57192;BME280;43052;52.588;13.396;2023-02-12T01:17:10;102954.66;;;6.92;80.07
57192;BME280;43052;52.588;13.396;2023-02-12T01:19:35;102969.59;;;6.96;80.17
57192;BME280;43052;52.588;13.396;2023-02-12T01:22:00;102962.31;;;6.89;80.04
57192;BME280;43052;52.588;13.396;2023-02-12T01:24:26;102968.47;;;6.91;80.18
57192;BME280;43052;52.588;13.396;2023-02-12T01:26:51;102959.28;;;6.80;80.17
57192;BME280;43052;52.588;13.396;2023-02-12T01:29:16;102960.00;;;6.76;80.22
57192;BME280;43052;52.588;13.396;2023-02-12T01:31:41;102966.78;;;6.72;80.26
57192;BME280;43052;52.588;13.396;2023-02-12T01:34:07;102957.63;;;6.62;80.08
57192;BME280;43052;52.588;13.396;2023-02-12T01:36:35;102967.91;;;6.59;80.61
57192;BME280;43052;52.588;13.396;2023-02-12T01:39:02;102975.84;;;6.62;80.34
57192;BME280;43052;52.588;13.396;2023-02-12T01:41:31;102978.16;;;6.56;80.21
57192;BME280;43052;52.588;13.396;2023-02-12T01:44:24;102991.31;;;6.59;80.42
57192;BME280;43052;52.588;13.396;2023-02-12T01:46:55;102990.72;;;6.65;80.31
57192;BME280;43052;52.588;13.396;2023-02-12T01:49:31;102987.16;;;6.63;80.08
57192;BME280;43052;52.588;13.396;2023-02-12T01:52:02;102994.78;;;6.59;79.84
57192;BME280;43052;52.588;13.396;2023-02-12T01:54:29;102991.09;;;6.54;80.03
57192;BME280;43052;52.588;13.396;2023-02-12T01:56:55;102993.75;;;6.56;80.12
57192;BME280;43052;52.588;13.396;2023-02-12T01:59:21;102997.16;;;6.55;80.18
57192;BME280;43052;52.588;13.396;2023-02-12T02:01:47;102984.88;;;6.51;80.37
57192;BME280;43052;52.588;13.396;2023-02-12T02:04:16;103005.19;;;6.59;80.56
57192;BME280;43052;52.588;13.396;2023-02-12T02:06:49;102994.50;;;6.53;80.37
57192;BME280;43052;52.588;13.396;2023-02-12T02:09:17;102995.69;;;6.60;80.45
57192;BME280;43052;52.588;13.396;2023-02-12T02:11:43;103008.06;;;6.66;80.59
57192;BME280;43052;52.588;13.396;2023-02-12T02:14:28;103008.97;;;6.66;80.57
57192;BME280;43052;52.588;13.396;2023-02-12T02:17:08;103010.66;;;6.66;80.47
57192;BME280;43052;52.588;13.396;2023-02-12T02:19:53;103008.91;;;6.65;80.76
57192;BME280;43052;52.588;13.396;2023-02-12T02:22:30;103008.16;;;6.67;80.65
57192;BME280;43052;52.588;13.396;2023-02-12T02:28:05;103007.25;;;6.67;80.71
57192;BME280;43052;52.588;13.396;2023-02-12T02:30:42;103001.16;;;6.66;80.63
57192;BME280;43052;52.588;13.396;2023-02-12T02:33:26;103010.53;;;6.63;80.71
57192;BME280;43052;52.588;13.396;2023-02-12T02:38:44;103009.72;;;6.64;80.61
57192;BME280;43052;52.588;13.396;2023-02-12T02:41:40;103008.06;;;6.66;80.64
57192;BME280;43052;52.588;13.396;2023-02-12T02:44:13;103000.25;;;6.66;80.49
57192;BME280;43052;52.588;13.396;2023-02-12T02:46:51;103006.44;;;6.68;80.62
57192;BME280;43052;52.588;13.396;2023-02-12T02:49:23;103008.22;;;6.69;80.75
57192;BME280;43052;52.588;13.396;2023-02-12T02:51:54;103013.56;;;6.72;80.64
57192;BME280;43052;52.588;13.396;2023-02-12T02:54:29;103014.38;;;6.71;80.59
57192;BME280;43052;52.588;13.396;2023-02-12T02:57:07;103018.09;;;6.76;80.65
57192;BME280;43052;52.588;13.396;2023-02-12T02:59:37;103017.81;;;6.70;80.33
57192;BME280;43052;52.588;13.396;2023-02-12T03:02:20;103020.56;;;6.73;80.27
57192;BME280;43052;52.588;13.396;2023-02-12T03:04:54;103032.81;;;6.76;80.16
57192;BME280;43052;52.588;13.396;2023-02-12T03:07:24;103025.81;;;6.74;80.23
57192;BME280;43052;52.588;13.396;2023-02-12T03:10:03;103026.69;;;6.75;80.33
57192;BME280;43052;52.588;13.396;2023-02-12T03:12:34;103038.00;;;6.76;80.22
57192;BME280;43052;52.588;13.396;2023-02-12T03:17:48;103041.28;;;6.71;80.19
57192;BME280;43052;52.588;13.396;2023-02-12T03:20:20;103041.88;;;6.66;80.10
57192;BME280;43052;52.588;13.396;2023-02-12T03:22:53;103046.25;;;6.67;80.26
57192;BME280;43052;52.588;13.396;2023-02-12T03:25:25;103053.34;;;6.69;80.43
57192;BME280;43052;52.588;13.396;2023-02-12T03:27:59;103045.53;;;6.69;80.42
57192;BME280;43052;52.588;13.396;2023-02-12T03:30:39;103041.88;;;6.66;80.23
57192;BME280;43052;52.588;13.396;2023-02-12T03:36:00;103052.59;;;6.72;79.96
57192;BME280;43052;52.588;13.396;2023-02-12T03:41:04;103042.84;;;6.68;79.96
57192;BME280;43052;52.588;13.396;2023-02-12T03:44:22;103049.16;;;6.73;79.70
57192;BME280;43052;52.588;13.396;2023-02-12T03:46:43;103051.81;;;6.74;79.66
57192;BME280;43052;52.588;13.396;2023-02-12T03:49:19;103049.28;;;6.76;79.73
57192;BME280;43052;52.588;13.396;2023-02-12T03:51:47;103048.34;;;6.74;79.61
57192;BME280;43052;52.588;13.396;2023-02-12T03:54:17;103057.69;;;6.70;79.63
57192;BME280;43052;52.588;13.396;2023-02-12T03:56:56;103062.00;;;6.70;79.48
57192;BME280;43052;52.588;13.396;2023-02-12T03:59:24;103068.78;;;6.66;79.35
57192;BME280;43052;52.588;13.396;2023-02-12T04:01:51;103058.22;;;6.63;79.26
57192;BME280;43052;52.588;13.396;2023-02-12T04:04:17;103075.81;;;6.69;79.50
57192;BME280;43052;52.588;13.396;2023-02-12T04:06:47;103069.59;;;6.65;79.38
57192;BME280;43052;52.588;13.396;2023-02-12T04:09:14;103080.16;;;6.68;79.39
57192;BME280;43052;52.588;13.396;2023-02-12T04:11:58;103083.47;;;6.66;79.49
57192;BME280;43052;52.588;13.396;2023-02-12T04:17:34;103088.22;;;6.74;79.12
57192;BME280;43052;52.588;13.396;2023-02-12T04:23:22;103084.97;;;6.79;78.79
57192;BME280;43052;52.588;13.396;2023-02-12T04:26:05;103093.59;;;6.78;78.79
57192;BME280;43052;52.588;13.396;2023-02-12T04:28:42;103092.47;;;6.72;78.65
57192;BME280;43052;52.588;13.396;2023-02-12T04:31:29;103079.94;;;6.64;78.78
57192;BME280;43052;52.588;13.396;2023-02-12T04:36:37;103096.06;;;6.56;78.75
57192;BME280;43052;52.588;13.396;2023-02-12T04:39:11;103092.63;;;6.57;78.85
57192;BME280;43052;52.588;13.396;2023-02-12T04:41:40;103092.72;;;6.59;78.98
57192;BME280;43052;52.588;13.396;2023-02-12T04:44:14;103095.66;;;6.67;78.91
57192;BME280;43052;52.588;13.396;2023-02-12T04:46:39;103092.25;;;6.68;78.74
57192;BME280;43052;52.588;13.396;2023-02-12T04:49:04;103083.69;;;6.70;78.87
57192;BME280;43052;52.588;13.396;2023-02-12T04:51:29;103085.56;;;6.73;78.77
57192;BME280;43052;52.588;13.396;2023-02-12T04:53:55;103081.25;;;6.73;78.71
57192;BME280;43052;52.588;13.396;2023-02-12T04:56:20;103086.66;;;6.78;78.77
57192;BME280;43052;52.588;13.396;2023-02-12T04:58:45;103084.06;;;6.78;78.86
57192;BME280;43052;52.588;13.396;2023-02-12T05:01:10;103088.59;;;6.82;78.76
57192;BME280;43052;52.588;13.396;2023-02-12T05:03:36;103084.50;;;6.87;78.57
57192;BME280;43052;52.588;13.396;2023-02-12T05:06:06;103088.34;;;6.96;78.23
57192;BME280;43052;52.588;13.396;2023-02-12T05:08:32;103088.41;;;6.97;78.25
57192;BME280;43052;52.588;13.396;2023-02-12T05:11:03;103091.78;;;6.95;78.00
57192;BME280;43052;52.588;13.396;2023-02-12T05:13:28;103093.41;;;6.93;78.48
57192;BME280;43052;52.588;13.396;2023-02-12T05:15:53;103087.91;;;6.86;78.43
57192;BME280;43052;52.588;13.396;2023-02-12T05:18:19;103100.09;;;6.87;78.39
57192;BME280;43052;52.588;13.396;2023-02-12T05:20:44;103098.31;;;6.86;78.30
57192;BME280;43052;52.588;13.396;2023-02-12T05:23:09;103106.28;;;6.89;78.21
57192;BME280;43052;52.588;13.396;2023-02-12T05:25:34;103101.97;;;6.90;78.34
57192;BME280;43052;52.588;13.396;2023-02-12T05:28:00;103109.91;;;6.93;78.28
57192;BME280;43052;52.588;13.396;2023-02-12T05:30:25;103116.09;;;6.95;77.95
57192;BME280;43052;52.588;13.396;2023-02-12T05:32:50;103101.19;;;6.93;77.98
57192;BME280;43052;52.588;13.396;2023-02-12T05:35:15;103104.13;;;6.99;77.76
57192;BME280;43052;52.588;13.396;2023-02-12T05:37:41;103106.94;;;7.03;77.68
57192;BME280;43052;52.588;13.396;2023-02-12T05:40:06;103107.66;;;7.01;77.49
57192;BME280;43052;52.588;13.396;2023-02-12T05:42:33;103105.00;;;6.99;77.52
57192;BME280;43052;52.588;13.396;2023-02-12T05:44:58;103107.66;;;7.01;77.26
57192;BME280;43052;52.588;13.396;2023-02-12T05:47:23;103110.25;;;7.01;77.19
57192;BME280;43052;52.588;13.396;2023-02-12T05:49:48;103108.34;;;6.97;77.22
57192;BME280;43052;52.588;13.396;2023-02-12T05:52:14;103113.81;;;7.03;77.35
57192;BME280;43052;52.588;13.396;2023-02-12T05:54:39;103118.00;;;6.99;77.07
57192;BME280;43052;52.588;13.396;2023-02-12T05:57:05;103107.59;;;6.99;77.31
57192;BME280;43052;52.588;13.396;2023-02-12T05:59:30;103102.34;;;6.98;77.13
57192;BME280;43052;52.588;13.396;2023-02-12T06:01:56;103111.59;;;6.93;77.35
57192;BME280;43052;52.588;13.396;2023-02-12T06:04:24;103105.97;;;6.83;77.69
57192;BME280;43052;52.588;13.396;2023-02-12T06:06:51;103115.78;;;6.89;77.46
57192;BME280;43052;52.588;13.396;2023-02-12T06:09:16;103126.28;;;6.90;77.43
57192;BME280;43052;52.588;13.396;2023-02-12T06:11:42;103127.69;;;6.84;77.54
57192;BME280;43052;52.588;13.396;2023-02-12T06:14:11;103133.41;;;6.77;77.62
57192;BME280;43052;52.588;13.396;2023-02-12T06:16:36;103132.22;;;6.70;78.00
57192;BME280;43052;52.588;13.396;2023-02-12T06:19:03;103122.34;;;6.63;77.96
57192;BME280;43052;52.588;13.396;2023-02-12T06:21:29;103141.66;;;6.68;78.01
57192;BME280;43052;52.588;13.396;2023-02-12T06:23:55;103137.19;;;6.65;77.89
57192;BME280;43052;52.588;13.396;2023-02-12T06:26:21;103144.25;;;6.68;77.86
57192;BME280;43052;52.588;13.396;2023-02-12T06:28:47;103146.72;;;6.65;78.08
57192;BME280;43052;52.588;13.396;2023-02-12T06:31:26;103156.66;;;6.73;77.85
57192;BME280;43052;52.588;13.396;2023-02-12T06:33:53;103159.09;;;6.70;78.03
57192;BME280;43052;52.588;13.396;2023-02-12T06:36:20;103158.38;;;6.73;77.87
57192;BME280;43052;52.588;13.396;2023-02-12T06:38:45;103170.06;;;6.81;77.48
57192;BME280;43052;52.588;13.396;2023-02-12T06:41:11;103176.19;;;6.83;77.52
57192;BME280;43052;52.588;13.396;2023-02-12T06:43:36;103172.56;;;6.80;77.75
57192;BME280;43052;52.588;13.396;2023-02-12T06:46:02;103177.25;;;6.87;77.77
57192;BME280;43052;52.588;13.396;2023-02-12T06:48:28;103172.28;;;6.92;77.66
57192;BME280;43052;52.588;13.396;2023-02-12T06:50:53;103172.06;;;6.87;77.77
57192;BME280;43052;52.588;13.396;2023-02-12T06:53:18;103173.22;;;6.94;77.75
57192;BME280;43052;52.588;13.396;2023-02-12T06:55:44;103180.50;;;7.01;77.23
57192;BME280;43052;52.588;13.396;2023-02-12T06:58:09;103186.47;;;6.98;77.59
57192;BME280;43052;52.588;13.396;2023-02-12T07:00:34;103196.00;;;6.98;77.66
57192;BME280;43052;52.588;13.396;2023-02-12T07:02:59;103193.31;;;6.96;77.62
57192;BME280;43052;52.588;13.396;2023-02-12T07:05:25;103188.84;;;6.94;77.79
57192;BME280;43052;52.588;13.396;2023-02-12T07:07:50;103187.16;;;6.94;77.79
57192;BME280;43052;52.588;13.396;2023-02-12T07:10:16;103184.59;;;6.96;77.69
57192;BME280;43052;52.588;13.396;2023-02-12T07:12:42;103180.50;;;7.01;77.94
57192;BME280;43052;52.588;13.396;2023-02-12T07:15:08;103192.09;;;7.08;77.42
57192;BME280;43052;52.588;13.396;2023-02-12T07:17:33;103188.84;;;7.12;77.33
57192;BME280;43052;52.588;13.396;2023-02-12T07:19:58;103198.78;;;7.20;77.20
57192;BME280;43052;52.588;13.396;2023-02-12T07:22:23;103205.94;;;7.25;77.00
57192;BME280;43052;52.588;13.396;2023-02-12T07:24:49;103203.44;;;7.28;77.29
57192;BME280;43052;52.588;13.396;2023-02-12T07:27:14;103186.75;;;7.22;77.08
57192;BME280;43052;52.588;13.396;2023-02-12T07:29:39;103201.00;;;7.31;77.08
57192;BME280;43052;52.588;13.396;2023-02-12T07:32:05;103201.00;;;7.31;77.08
57192;BME280;43052;52.588;13.396;2023-02-12T07:34:30;103205.63;;;7.36;76.98
57192;BME280;43052;52.588;13.396;2023-02-12T07:36:56;103211.19;;;7.44;76.75
57192;BME280;43052;52.588;13.396;2023-02-12T07:39:21;103207.84;;;7.47;76.80
57192;BME280;43052;52.588;13.396;2023-02-12T07:41:46;103203.06;;;7.56;76.81
57192;BME280;43052;52.588;13.396;2023-02-12T07:44:12;103213.94;;;7.67;76.68
57192;BME280;43052;52.588;13.396;2023-02-12T07:46:42;103202.88;;;7.71;76.45
57192;BME280;43052;52.588;13.396;2023-02-12T07:49:12;103224.28;;;7.85;76.18
57192;BME280;43052;52.588;13.396;2023-02-12T07:51:39;103215.75;;;7.88;76.00
57192;BME280;43052;52.588;13.396;2023-02-12T07:54:05;103212.34;;;7.89;76.00
57192;BME280;43052;52.588;13.396;2023-02-12T07:56:32;103208.66;;;7.85;76.20
57192;BME280;43052;52.588;13.396;2023-02-12T07:59:01;103222.88;;;7.92;76.05
57192;BME280;43052;52.588;13.396;2023-02-12T08:01:36;103221.38;;;7.97;76.00
57192;BME280;43052;52.588;13.396;2023-02-12T08:04:08;103226.09;;;8.06;75.60
57192;BME280;43052;52.588;13.396;2023-02-12T08:06:36;103222.06;;;8.12;75.60
57192;BME280;43052;52.588;13.396;2023-02-12T08:09:05;103217.44;;;8.07;75.71
57192;BME280;43052;52.588;13.396;2023-02-12T08:11:31;103228.09;;;8.11;75.46
57192;BME280;43052;52.588;13.396;2023-02-12T08:13:57;103233.44;;;8.14;75.87
57192;BME280;43052;52.588;13.396;2023-02-12T08:16:24;103225.69;;;8.16;75.72
57192;BME280;43052;52.588;13.396;2023-02-12T08:18:50;103234.56;;;8.21;75.62
57192;BME280;43052;52.588;13.396;2023-02-12T08:21:21;103225.06;;;8.22;75.31
57192;BME280;43052;52.588;13.396;2023-02-12T08:23:47;103242.03;;;8.33;75.11
57192;BME280;43052;52.588;13.396;2023-02-12T08:26:21;103246.31;;;8.31;75.04
57192;BME280;43052;52.588;13.396;2023-02-12T08:28:49;103239.13;;;8.25;74.93
57192;BME280;43052;52.588;13.396;2023-02-12T08:31:30;103248.84;;;8.29;75.07
57192;BME280;43052;52.588;13.396;2023-02-12T08:33:55;103249.84;;;8.33;74.80
57192;BME280;43052;52.588;13.396;2023-02-12T08:36:27;103250.19;;;8.41;74.50
57192;BME280;43052;52.588;13.396;2023-02-12T08:38:52;103250.34;;;8.44;74.15
57192;BME280;43052;52.588;13.396;2023-02-12T08:41:21;103247.53;;;8.39;74.39
57192;BME280;43052;52.588;13.396;2023-02-12T08:43:47;103258.41;;;8.49;74.32
57192;BME280;43052;52.588;13.396;2023-02-12T08:46:22;103261.47;;;8.59;74.05
57192;BME280;43052;52.588;13.396;2023-02-12T08:48:51;103269.69;;;8.69;73.57
57192;BME280;43052;52.588;13.396;2023-02-12T08:51:20;103269.34;;;8.82;73.30
57192;BME280;43052;52.588;13.396;2023-02-12T08:53:50;103271.47;;;8.91;73.11
57192;BME280;43052;52.588;13.396;2023-02-12T08:56:16;103276.84;;;8.94;73.09
57192;BME280;43052;52.588;13.396;2023-02-12T08:58:42;103276.94;;;8.97;72.82
57192;BME280;43052;52.588;13.396;2023-02-12T09:01:10;103280.66;;;9.02;72.87
57192;BME280;43052;52.588;13.396;2023-02-12T09:03:36;103288.53;;;9.04;72.78
57192;BME280;43052;52.588;13.396;2023-02-12T09:06:03;103284.00;;;9.00;72.53
57192;BME280;43052;52.588;13.396;2023-02-12T09:08:29;103283.81;;;8.95;72.60
57192;BME280;43052;52.588;13.396;2023-02-12T09:10:54;103289.09;;;8.97;72.58
57192;BME280;43052;52.588;13.396;2023-02-12T09:13:19;103293.69;;;9.02;72.30
57192;BME280;43052;52.588;13.396;2023-02-12T09:15:45;103296.56;;;9.08;72.43
57192;BME280;43052;52.588;13.396;2023-02-12T09:18:13;103292.47;;;9.15;72.07
57192;BME280;43052;52.588;13.396;2023-02-12T09:20:40;103292.59;;;9.18;72.01
57192;BME280;43052;52.588;13.396;2023-02-12T09:23:09;103297.69;;;9.36;71.75
57192;BME280;43052;52.588;13.396;2023-02-12T09:25:38;103308.84;;;9.55;71.55
57192;BME280;43052;52.588;13.396;2023-02-12T09:28:04;103303.44;;;9.73;71.59
57192;BME280;43052;52.588;13.396;2023-02-12T09:30:29;103307.53;;;9.89;71.12
57192;BME280;43052;52.588;13.396;2023-02-12T09:32:55;103307.63;;;9.92;70.81
57192;BME280;43052;52.588;13.396;2023-02-12T09:35:21;103318.25;;;9.97;70.44
57192;BME280;43052;52.588;13.396;2023-02-12T09:37:46;103319.13;;;9.96;70.42
57192;BME280;43052;52.588;13.396;2023-02-12T09:43:10;103316.16;;;9.86;70.60
57192;BME280;43052;52.588;13.396;2023-02-12T09:48:49;103321.56;;;9.91;70.40
57192;BME280;43052;52.588;13.396;2023-02-12T09:51:18;103313.91;;;9.96;70.37
57192;BME280;43052;52.588;13.396;2023-02-12T09:53:46;103319.06;;;9.94;69.73
57192;BME280;43052;52.588;13.396;2023-02-12T09:56:16;103324.22;;;9.93;69.89
57192;BME280;43052;52.588;13.396;2023-02-12T09:58:51;103317.63;;;10.02;70.00
57192;BME280;43052;52.588;13.396;2023-02-12T10:01:19;103313.03;;;10.19;69.73
57192;BME280;43052;52.588;13.396;2023-02-12T10:03:48;103314.69;;;10.17;69.42
57192;BME280;43052;52.588;13.396;2023-02-12T10:06:19;103328.81;;;9.98;69.67
57192;BME280;43052;52.588;13.396;2023-02-12T10:09:07;103328.38;;;9.87;69.98
57192;BME280;43052;52.588;13.396;2023-02-12T10:11:42;103326.47;;;10.06;69.97
57192;BME280;43052;52.588;13.396;2023-02-12T10:19:58;103314.97;;;10.74;69.12
57192;BME280;43052;52.588;13.396;2023-02-12T10:22:44;103319.31;;;10.99;68.72
57192;BME280;43052;52.588;13.396;2023-02-12T10:25:25;103311.78;;;11.08;67.93
57192;BME280;43052;52.588;13.396;2023-02-12T10:27:59;103313.00;;;10.94;67.86
57192;BME280;43052;52.588;13.396;2023-02-12T10:30:38;103314.97;;;10.74;67.94
57192;BME280;43052;52.588;13.396;2023-02-12T10:33:12;103318.78;;;10.58;68.07
57192;BME280;43052;52.588;13.396;2023-02-12T10:35:44;103305.06;;;10.39;68.56
57192;BME280;43052;52.588;13.396;2023-02-12T10:38:18;103314.91;;;10.46;69.01
57192;BME280;43052;52.588;13.396;2023-02-12T10:40:45;103321.00;;;10.47;69.08
57192;BME280;43052;52.588;13.396;2023-02-12T10:43:11;103320.66;;;10.38;69.21
57192;BME280;43052;52.588;13.396;2023-02-12T10:45:38;103324.81;;;10.32;69.38
57192;BME280;43052;52.588;13.396;2023-02-12T10:48:12;103321.03;;;10.24;69.03
57192;BME280;43052;52.588;13.396;2023-02-12T10:53:24;103326.28;;;10.01;69.71
57192;BME280;43052;52.588;13.396;2023-02-12T10:56:05;103322.28;;;9.87;69.97
57192;BME280;43052;52.588;13.396;2023-02-12T10:58:32;103321.44;;;9.88;70.07
57192;BME280;43052;52.588;13.396;2023-02-12T11:00:58;103314.38;;;9.85;70.26
57192;BME280;43052;52.588;13.396;2023-02-12T11:03:30;103312.41;;;9.80;70.26
57192;BME280;43052;52.588;13.396;2023-02-12T11:06:17;103314.13;;;9.79;70.57
57192;BME280;43052;52.588;13.396;2023-02-12T11:08:43;103315.91;;;9.80;70.73
57192;BME280;43052;52.588;13.396;2023-02-12T11:11:19;103330.56;;;9.77;70.64
57192;BME280;43052;52.588;13.396;2023-02-12T11:13:52;103320.41;;;9.62;70.97
57192;BME280;43052;52.588;13.396;2023-02-12T11:16:33;103317.84;;;9.40;71.46
57192;BME280;43052;52.588;13.396;2023-02-12T11:19:01;103320.75;;;9.25;72.00
57192;BME280;43052;52.588;13.396;2023-02-12T11:21:30;103324.88;;;9.20;72.11
57192;BME280;43052;52.588;13.396;2023-02-12T11:23:55;103318.41;;;9.11;72.22
57192;BME280;43052;52.588;13.396;2023-02-12T11:26:27;103321.94;;;9.13;72.76
57192;BME280;43052;52.588;13.396;2023-02-12T11:29:02;103322.66;;;9.08;72.73
57192;BME280;43052;52.588;13.396;2023-02-12T11:31:32;103311.97;;;9.02;72.81
57192;BME280;43052;52.588;13.396;2023-02-12T11:36:39;103309.47;;;9.05;72.80
57192;BME280;43052;52.588;13.396;2023-02-12T11:39:17;103311.63;;;9.16;72.95
57192;BME280;43052;52.588;13.396;2023-02-12T11:41:44;103318.44;;;9.33;72.81
57192;BME280;43052;52.588;13.396;2023-02-12T11:44:35;103305.47;;;9.57;72.50
57192;BME280;43052;52.588;13.396;2023-02-12T11:47:04;103300.03;;;9.76;71.93
57192;BME280;43052;52.588;13.396;2023-02-12T11:49:37;103292.50;;;9.83;71.47
57192;BME280;43052;52.588;13.396;2023-02-12T11:52:04;103308.41;;;9.90;70.89
57192;BME280;43052;52.588;13.396;2023-02-12T11:54:37;103300.03;;;9.76;70.39
57192;BME280;43052;52.588;13.396;2023-02-12T11:57:04;103297.22;;;9.69;70.31
57192;BME280;43052;52.588;13.396;2023-02-12T11:59:35;103294.88;;;9.54;70.43
57192;BME280;43052;52.588;13.396;2023-02-12T12:02:29;103305.94;;;9.47;70.36
57192;BME280;43052;52.588;13.396;2023-02-12T12:05:07;103298.50;;;9.35;70.68
57192;BME280;43052;52.588;13.396;2023-02-12T12:07:38;103299.91;;;9.27;70.65
57192;BME280;43052;52.588;13.396;2023-02-12T12:10:16;103302.28;;;9.21;70.94
57192;BME280;43052;52.588;13.396;2023-02-12T12:12:50;103301.81;;;9.10;71.20
57192;BME280;43052;52.588;13.396;2023-02-12T12:15:21;103296.88;;;9.16;71.42
57192;BME280;43052;52.588;13.396;2023-02-12T12:18:23;103285.63;;;9.40;71.25
57192;BME280;43052;52.588;13.396;2023-02-12T12:21:16;103280.94;;;9.54;70.78
57192;BME280;43052;52.588;13.396;2023-02-12T12:23:55;103285.38;;;9.79;70.98
57192;BME280;43052;52.588;13.396;2023-02-12T12:26:25;103285.53;;;10.07;70.68
57192;BME280;43052;52.588;13.396;2023-02-12T12:29:00;103284.06;;;10.38;70.28
57192;BME280;43052;52.588;13.396;2023-02-12T12:31:37;103268.69;;;10.73;69.39
57192;BME280;43052;52.588;13.396;2023-02-12T12:34:10;103272.22;;;11.01;68.29
57192;BME280;43052;52.588;13.396;2023-02-12T12:45:12;103265.19;;;10.72;66.76
57192;BME280;43052;52.588;13.396;2023-02-12T12:51:03;103259.88;;;10.96;65.74
57192;BME280;43052;52.588;13.396;2023-02-12T12:53:54;103252.13;;;11.00;65.30
57192;BME280;43052;52.588;13.396;2023-02-12T13:13:03;103259.69;;;11.18;63.91
57192;BME280;43052;52.588;13.396;2023-02-12T13:16:02;103259.63;;;11.16;64.29
57192;BME280;43052;52.588;13.396;2023-02-12T13:23:52;103251.50;;;11.36;63.90
57192;BME280;43052;52.588;13.396;2023-02-12T13:26:50;103257.22;;;11.51;63.46
57192;BME280;43052;52.588;13.396;2023-02-12T13:29:37;103253.75;;;11.52;63.25
57192;BME280;43052;52.588;13.396;2023-02-12T13:32:11;103250.63;;;11.35;63.22
57192;BME280;43052;52.588;13.396;2023-02-12T13:34:39;103246.50;;;11.15;63.53
57192;BME280;43052;52.588;13.396;2023-02-12T13:37:13;103236.91;;;10.88;63.50
57192;BME280;43052;52.588;13.396;2023-02-12T13:39:44;103231.97;;;10.70;63.62
57192;BME280;43052;52.588;13.396;2023-02-12T13:56:10;103232.13;;;10.74;63.98
57192;BME280;43052;52.588;13.396;2023-02-12T14:13:35;103234.16;;;10.57;64.14
57192;BME280;43052;52.588;13.396;2023-02-12T18:54:05;103315.56;;;7.87;74.54
57192;BME280;43052;52.588;13.396;2023-02-12T18:56:35;103319.88;;;7.86;74.83
57192;BME280;43052;52.588;13.396;2023-02-12T18:59:03;103320.84;;;7.88;74.91
57192;BME280;43052;52.588;13.396;2023-02-12T19:01:30;103317.38;;;7.88;74.87
57192;BME280;43052;52.588;13.396;2023-02-12T19:03:58;103319.38;;;7.93;75.16
57192;BME280;43052;52.588;13.396;2023-02-12T19:06:28;103319.44;;;7.95;74.98
57192;BME280;43052;52.588;13.396;2023-02-12T19:08:55;103301.78;;;7.89;75.23
57192;BME280;43052;52.588;13.396;2023-02-12T19:11:20;103312.69;;;8.00;75.20
57192;BME280;43052;52.588;13.396;2023-02-12T19:13:47;103310.84;;;7.97;75.39
57192;BME280;43052;52.588;13.396;2023-02-12T19:16:14;103311.66;;;7.96;75.48
57192;BME280;43052;52.588;13.396;2023-02-12T19:18:40;103318.72;;;7.99;75.66
57192;BME280;43052;52.588;13.396;2023-02-12T19:21:07;103321.34;;;7.99;75.82
57192;BME280;43052;52.588;13.396;2023-02-12T19:23:33;103320.47;;;7.98;76.01